createdAt,value
2023-01-25T00:56:30.055Z,5.70
2023-01-25T01:04:35.714Z,5.60
2023-01-25T01:12:44.387Z,5.50
2023-01-25T01:20:52.434Z,5.90
2023-01-25T01:29:02.972Z,6.20
2023-01-25T01:37:08.529Z,6.40
2023-01-25T01:45:43.675Z,6.30
2023-01-25T01:53:59.075Z,5.90
2023-01-25T02:02:05.181Z,6.30
2023-01-25T02:10:15.849Z,6.20
2023-01-25T02:18:23.149Z,5.60
2023-01-25T02:26:34.026Z,5.60
2023-01-25T02:34:39.706Z,5.90
2023-01-25T02:42:49.328Z,5.50
2023-01-25T02:50:54.828Z,5.60
2023-01-25T02:59:05.851Z,5.60
2023-01-25T03:07:13.298Z,5.80
2023-01-25T03:15:21.513Z,5.80
2023-01-25T03:23:27.356Z,5.90
2023-01-25T03:31:36.974Z,6.10
2023-01-25T03:39:42.715Z,6.10
2023-01-25T03:47:51.199Z,6.30
2023-01-25T03:55:58.852Z,6.20
2023-01-25T04:04:09.092Z,6.30
2023-01-25T04:12:17.269Z,6.20
2023-01-25T04:20:26.373Z,6.20
2023-01-25T04:28:33.894Z,6.30
2023-01-25T04:36:42.863Z,6.10
2023-01-25T04:44:51.243Z,6.30
2023-01-25T04:52:57.633Z,6.40
2023-01-25T05:01:07.749Z,6.40
2023-01-25T05:09:15.307Z,6.00
2023-01-25T05:17:23.970Z,6.10
2023-01-25T05:25:41.896Z,5.40
2023-01-25T05:33:51.861Z,5.40
2023-01-25T05:42:02.342Z,6.00
2023-01-25T05:50:12.042Z,5.40
2023-01-25T05:58:39.943Z,5.70
2023-01-25T06:06:49.643Z,5.70
2023-01-25T06:14:55.289Z,5.60
2023-01-25T06:23:03.698Z,5.50
2023-01-25T06:31:11.406Z,6.10
2023-01-25T06:39:19.668Z,6.00
2023-01-25T06:47:25.261Z,5.60
2023-01-25T06:55:33.446Z,5.90
2023-01-25T07:03:39.012Z,6.20
2023-01-25T07:11:47.187Z,6.20
2023-01-25T07:19:54.782Z,6.50
2023-01-25T07:28:02.988Z,6.50
2023-01-25T07:36:10.899Z,5.50
2023-01-25T07:44:20.509Z,5.30
2023-01-25T07:52:30.942Z,6.20
2023-01-25T08:00:39.276Z,6.00
2023-01-25T08:08:46.837Z,6.40
2023-01-25T08:16:54.995Z,7.00
2023-01-25T08:25:01.635Z,7.30
2023-01-25T08:33:09.795Z,6.90
2023-01-25T08:41:19.698Z,6.90
2023-01-25T08:49:27.817Z,6.50
2023-01-25T08:57:34.027Z,6.30
2023-01-25T09:05:42.878Z,7.00
2023-01-25T09:13:49.186Z,7.20
2023-01-25T09:21:57.148Z,8.00
2023-01-25T09:30:04.196Z,8.30
2023-01-25T09:38:12.535Z,8.80
2023-01-25T09:46:37.038Z,8.00
2023-01-25T09:54:47.950Z,7.90
2023-01-25T10:03:00.193Z,7.20
2023-01-25T10:11:16.962Z,7.80
2023-01-25T10:19:26.853Z,8.10
2023-01-25T10:27:45.044Z,8.00
2023-01-25T10:35:52.604Z,8.10
2023-01-25T10:44:13.444Z,8.10
2023-01-25T10:52:21.614Z,7.90
2023-01-25T11:00:33.827Z,8.30
2023-01-25T11:08:41.540Z,8.70
2023-01-25T11:16:52.691Z,7.90
2023-01-25T11:24:58.100Z,8.50
2023-01-25T11:33:11.165Z,8.50
2023-01-25T11:41:24.843Z,8.70
2023-01-25T11:49:43.083Z,9.00
2023-01-25T11:58:00.249Z,9.10
2023-01-25T12:06:16.535Z,9.90
2023-01-25T12:14:31.352Z,9.30
2023-01-25T12:22:59.310Z,9.30
2023-01-25T12:31:10.969Z,8.90
2023-01-25T12:39:25.245Z,8.30
2023-01-25T12:47:36.435Z,7.80
2023-01-25T12:55:44.884Z,7.70
2023-01-25T13:04:06.978Z,8.00
2023-01-25T13:12:15.763Z,8.10
2023-01-25T13:20:51.250Z,8.00
2023-01-25T13:29:00.726Z,7.60
2023-01-25T13:37:19.602Z,7.80
2023-01-25T13:45:28.128Z,7.80
2023-01-25T13:53:35.683Z,7.80
2023-01-25T14:01:45.852Z,7.10
2023-01-25T14:09:53.233Z,7.60
2023-01-25T14:18:16.481Z,7.60
2023-01-25T14:26:25.508Z,7.40
2023-01-25T14:34:33.640Z,7.50
2023-01-25T14:42:38.988Z,7.20
2023-01-25T14:50:47.914Z,7.20
2023-01-25T14:58:59.551Z,7.40
2023-01-25T15:07:17.743Z,7.20
2023-01-25T15:15:25.559Z,7.50
2023-01-25T15:23:33.725Z,7.30
2023-01-25T15:31:46.985Z,7.30
2023-01-25T15:39:54.970Z,7.60
2023-01-25T15:48:02.290Z,7.60
2023-01-25T15:56:15.980Z,7.20
2023-01-25T16:04:25.435Z,7.00
2023-01-25T16:12:34.601Z,6.80
2023-01-25T16:20:40.168Z,6.00
2023-01-25T16:28:48.187Z,6.50
2023-01-25T16:36:54.275Z,6.50
2023-01-25T16:45:02.514Z,6.80
2023-01-25T16:53:08.096Z,7.10
2023-01-25T17:01:18.149Z,6.80
2023-01-25T17:09:25.709Z,6.80
2023-01-25T17:17:34.167Z,7.40
2023-01-25T17:25:41.704Z,7.40
2023-01-25T17:33:49.973Z,7.60
2023-01-25T17:41:55.693Z,7.70
2023-01-25T17:50:04.139Z,7.60
2023-01-25T17:58:09.911Z,7.30
2023-01-25T18:06:19.388Z,6.60
2023-01-25T18:14:25.432Z,6.70
2023-01-25T18:22:35.864Z,7.10
2023-01-25T18:30:46.067Z,7.20
2023-01-25T18:38:54.710Z,7.20
2023-01-25T18:47:01.360Z,6.50
2023-01-25T18:55:10.053Z,6.70
2023-01-25T19:03:16.165Z,5.70
2023-01-25T19:11:25.310Z,5.60
2023-01-25T19:19:44.290Z,5.50
2023-01-25T19:27:56.375Z,5.40
2023-01-25T19:36:04.476Z,5.50
2023-01-25T19:44:16.496Z,5.70
2023-01-25T19:52:26.875Z,6.30
2023-01-25T20:00:37.172Z,6.30
2023-01-25T20:08:45.704Z,6.10
2023-01-25T20:16:54.574Z,5.30
2023-01-25T20:26:16.944Z,5.30
2023-01-25T20:34:31.381Z,4.90
2023-01-25T20:42:39.664Z,5.10
2023-01-25T20:50:47.593Z,4.90
2023-01-25T20:58:54.236Z,5.00
2023-01-25T21:07:02.151Z,4.80
2023-01-25T21:15:09.619Z,5.40
2023-01-25T21:23:17.965Z,5.10
2023-01-25T21:31:43.415Z,5.30
2023-01-25T21:39:54.283Z,4.80
2023-01-25T21:48:02.968Z,5.00
2023-01-25T21:56:11.350Z,4.60
2023-01-25T22:04:18.329Z,4.50
2023-01-25T22:12:26.295Z,4.40
2023-01-25T22:20:33.191Z,4.60
2023-01-25T22:28:47.762Z,4.40
2023-01-25T22:36:54.688Z,4.80
2023-01-25T22:45:02.771Z,4.20
2023-01-25T22:53:10.497Z,4.50
2023-01-25T23:01:20.508Z,4.40
2023-01-25T23:09:25.882Z,4.60
2023-01-25T23:17:46.250Z,4.20
2023-01-25T23:25:51.644Z,4.20
2023-01-25T23:34:01.682Z,3.90
2023-01-25T23:42:07.635Z,4.40
2023-01-25T23:50:16.997Z,4.40
2023-01-25T23:58:23.272Z,4.10
